createdAt,value
2022-08-07T00:00:45.394Z,0.00
2022-08-07T00:02:39.911Z,0.00
2022-08-07T00:02:46.224Z,0.00
2022-08-07T00:03:47.305Z,0.00
2022-08-07T00:04:45.735Z,0.00
2022-08-07T00:05:46.380Z,0.00
2022-08-07T00:06:52.313Z,0.00
2022-08-07T00:07:45.942Z,0.00
2022-08-07T00:08:46.004Z,0.00
2022-08-07T00:10:04.664Z,0.00
2022-08-07T00:10:48.153Z,0.00
2022-08-07T00:11:53.979Z,0.00
2022-08-07T00:13:00.748Z,0.00
2022-08-07T00:13:46.363Z,0.00
2022-08-07T00:14:46.425Z,0.00
2022-08-07T00:15:51.029Z,0.00
2022-08-07T00:16:46.554Z,0.00
2022-08-07T00:17:46.633Z,0.00
2022-08-07T00:18:46.729Z,0.00
2022-08-07T00:20:01.040Z,0.00
2022-08-07T00:20:46.854Z,0.00
2022-08-07T00:21:56.288Z,0.00
2022-08-07T00:22:51.768Z,0.00
2022-08-07T00:23:47.570Z,0.00
2022-08-07T00:24:47.161Z,0.00
2022-08-07T00:25:58.220Z,0.00
2022-08-07T00:26:59.112Z,0.00
2022-08-07T00:27:52.501Z,0.00
2022-08-07T00:28:56.759Z,0.00
2022-08-07T00:29:47.505Z,0.00
2022-08-07T00:30:47.554Z,0.00
2022-08-07T00:31:49.214Z,0.00
2022-08-07T00:32:47.710Z,0.00
2022-08-07T00:33:47.971Z,0.00
2022-08-07T00:34:47.889Z,0.00
2022-08-07T00:35:49.593Z,0.00
2022-08-07T00:36:48.041Z,0.00
2022-08-07T00:37:48.583Z,0.00
2022-08-07T00:38:48.220Z,0.00
2022-08-07T00:39:54.519Z,0.00
2022-08-07T00:40:48.356Z,0.00
2022-08-07T00:41:53.124Z,0.00
2022-08-07T00:42:50.227Z,0.00
2022-08-07T00:44:01.991Z,0.00
2022-08-07T00:44:48.642Z,0.00
2022-08-07T00:45:48.707Z,0.00
2022-08-07T00:46:48.788Z,0.00
2022-08-07T00:48:07.701Z,0.00
2022-08-07T00:48:49.955Z,0.00
2022-08-07T00:50:21.289Z,0.00
2022-08-07T00:50:51.544Z,0.00
2022-08-07T00:51:57.696Z,0.00
2022-08-07T00:52:49.199Z,0.00
2022-08-07T00:53:50.750Z,0.00
2022-08-07T00:54:53.828Z,0.00
2022-08-07T00:56:02.630Z,0.00
2022-08-07T00:56:49.899Z,0.00
2022-08-07T00:57:55.929Z,0.00
2022-08-07T00:58:50.094Z,0.00
2022-08-07T00:59:49.731Z,0.00
2022-08-07T01:00:53.549Z,0.00
2022-08-07T01:01:49.921Z,0.00
2022-08-07T01:02:49.943Z,0.00
2022-08-07T01:03:56.206Z,0.00
2022-08-07T01:04:50.096Z,0.00
2022-08-07T01:05:51.596Z,0.00
2022-08-07T01:06:50.256Z,0.00
2022-08-07T01:07:50.335Z,0.00
2022-08-07T01:08:53.068Z,0.00
2022-08-07T01:10:06.253Z,0.00
2022-08-07T01:10:54.363Z,0.00
2022-08-07T01:12:09.677Z,0.00
2022-08-07T01:12:53.570Z,0.00
2022-08-07T01:13:55.965Z,0.00
2022-08-07T01:14:50.835Z,0.00
2022-08-07T01:16:05.078Z,0.00
2022-08-07T01:16:50.965Z,0.00
2022-08-07T01:17:51.037Z,0.00
2022-08-07T01:18:51.115Z,0.00
2022-08-07T01:19:54.216Z,0.00
2022-08-07T01:20:57.551Z,0.00
2022-08-07T01:21:53.356Z,0.00
2022-08-07T01:23:00.741Z,0.00
2022-08-07T01:23:51.583Z,0.00
2022-08-07T01:24:51.625Z,0.00
2022-08-07T01:25:55.653Z,0.00
2022-08-07T01:26:52.792Z,0.00
2022-08-07T01:27:51.863Z,0.00
2022-08-07T01:28:51.986Z,0.00
2022-08-07T01:29:51.997Z,0.00
2022-08-07T01:30:52.175Z,0.00
2022-08-07T01:31:52.142Z,0.00
2022-08-07T01:32:52.194Z,0.00
2022-08-07T01:33:55.625Z,0.00
2022-08-07T01:34:52.350Z,0.00
2022-08-07T01:35:54.307Z,0.00
2022-08-07T01:36:58.129Z,0.00
2022-08-07T01:37:52.560Z,0.00
2022-08-07T01:38:52.644Z,0.00
2022-08-07T01:39:52.829Z,0.00
2022-08-07T01:40:52.814Z,0.00
2022-08-07T01:42:07.677Z,0.00
2022-08-07T01:42:58.496Z,0.00
2022-08-07T01:43:53.051Z,0.00
2022-08-07T01:44:53.093Z,0.00
2022-08-07T01:45:54.565Z,0.00
2022-08-07T01:46:53.248Z,0.00
2022-08-07T01:48:29.198Z,0.00
2022-08-07T01:48:53.438Z,0.00
2022-08-07T01:49:54.846Z,0.00
2022-08-07T01:50:53.561Z,0.00
2022-08-07T01:52:03.710Z,0.00
2022-08-07T01:52:54.076Z,0.00
2022-08-07T01:54:12.806Z,0.00
2022-08-07T01:54:53.907Z,0.00
2022-08-07T01:55:53.975Z,0.00
2022-08-07T01:56:54.043Z,0.00
2022-08-07T01:58:01.173Z,0.00
2022-08-07T01:58:54.178Z,0.00
2022-08-07T01:59:54.583Z,0.00
2022-08-07T02:01:05.045Z,0.00
2022-08-07T02:02:02.646Z,0.00
2022-08-07T02:03:12.138Z,0.00
2022-08-07T02:03:54.597Z,0.00
2022-08-07T02:04:56.654Z,0.00
2022-08-07T02:05:59.681Z,0.00
2022-08-07T02:06:54.724Z,0.00
2022-08-07T02:07:54.794Z,0.00
2022-08-07T02:08:54.844Z,0.00
2022-08-07T02:09:58.698Z,0.00
2022-08-07T02:10:58.009Z,0.00
2022-08-07T02:12:03.527Z,0.00
2022-08-07T02:12:55.149Z,0.00
2022-08-07T02:13:57.732Z,0.00
2022-08-07T02:14:55.314Z,0.00
2022-08-07T02:15:55.360Z,0.00
2022-08-07T02:16:55.433Z,0.00
2022-08-07T02:17:55.526Z,0.00
2022-08-07T02:18:55.586Z,0.00
2022-08-07T02:20:04.606Z,0.00
2022-08-07T02:20:57.403Z,0.00
2022-08-07T02:21:58.660Z,0.00
2022-08-07T02:22:55.888Z,0.00
2022-08-07T02:23:55.967Z,0.00
2022-08-07T02:24:56.063Z,0.00
2022-08-07T02:26:31.730Z,0.00
2022-08-07T02:26:56.205Z,0.00
2022-08-07T02:27:56.301Z,0.00
2022-08-07T02:28:56.401Z,0.00
2022-08-07T02:29:56.487Z,0.00
2022-08-07T02:30:56.549Z,0.00
2022-08-07T02:31:56.607Z,0.00
2022-08-07T02:33:07.311Z,0.00
2022-08-07T02:34:02.778Z,0.00
2022-08-07T02:34:56.885Z,0.00
2022-08-07T02:36:30.136Z,0.00
2022-08-07T02:36:57.001Z,0.00
2022-08-07T02:37:57.058Z,0.00
2022-08-07T02:38:57.295Z,0.00
2022-08-07T02:40:02.175Z,0.00
2022-08-07T02:40:57.366Z,0.00
2022-08-07T02:41:57.346Z,0.00
2022-08-07T02:42:57.425Z,0.00
2022-08-07T02:43:57.484Z,0.00
2022-08-07T02:44:58.372Z,0.00
2022-08-07T02:46:02.138Z,0.00
2022-08-07T02:46:57.757Z,0.00
2022-08-07T02:47:59.161Z,0.00
2022-08-07T02:48:57.880Z,0.00
2022-08-07T02:49:59.983Z,0.00
2022-08-07T02:50:58.032Z,0.00
2022-08-07T02:51:58.073Z,0.00
2022-08-07T02:53:00.793Z,0.00
2022-08-07T02:53:58.210Z,0.00
2022-08-07T02:54:58.303Z,0.00
2022-08-07T02:56:03.472Z,0.00
2022-08-07T02:56:58.540Z,0.00
2022-08-07T02:57:58.498Z,0.00
2022-08-07T02:58:58.573Z,0.00
2022-08-07T03:00:01.110Z,0.00
2022-08-07T03:00:58.765Z,0.00
2022-08-07T03:02:02.212Z,0.00
2022-08-07T03:02:58.889Z,0.00
2022-08-07T03:03:58.939Z,0.00
2022-08-07T03:04:59.057Z,0.00
2022-08-07T03:05:59.104Z,0.00
2022-08-07T03:06:59.185Z,0.00
2022-08-07T03:08:07.657Z,0.00
2022-08-07T03:08:59.320Z,0.00
2022-08-07T03:09:59.389Z,0.00
2022-08-07T03:10:59.471Z,0.00
2022-08-07T03:12:02.842Z,0.00
2022-08-07T03:12:59.606Z,0.00
2022-08-07T03:14:01.751Z,0.00
2022-08-07T03:15:02.432Z,0.00
2022-08-07T03:15:59.837Z,0.00
2022-08-07T03:16:59.904Z,0.00
2022-08-07T03:17:59.993Z,0.00
2022-08-07T03:19:00.077Z,0.00
2022-08-07T03:20:00.176Z,0.00
2022-08-07T03:21:00.240Z,0.00
2022-08-07T03:22:00.292Z,0.00
2022-08-07T03:23:00.371Z,4.00
2022-08-07T03:24:18.432Z,4.00
2022-08-07T03:25:00.573Z,0.00
2022-08-07T03:26:00.585Z,0.00
2022-08-07T03:27:00.666Z,4.00
2022-08-07T03:28:09.494Z,4.00
2022-08-07T03:29:00.799Z,0.00
2022-08-07T03:30:00.860Z,4.00
2022-08-07T03:31:00.952Z,4.00
2022-08-07T03:32:01.014Z,4.00
2022-08-07T03:33:01.126Z,4.00
2022-08-07T03:34:01.168Z,4.00
2022-08-07T03:35:17.501Z,4.00
2022-08-07T03:36:01.327Z,8.00
2022-08-07T03:37:01.410Z,8.00
2022-08-07T03:38:01.474Z,12.00
2022-08-07T03:39:05.570Z,12.00
2022-08-07T03:40:15.468Z,16.00
2022-08-07T03:41:01.824Z,16.00
2022-08-07T03:42:01.794Z,20.00
2022-08-07T03:43:01.882Z,24.00
2022-08-07T03:44:01.947Z,32.00
2022-08-07T03:45:02.053Z,36.00
2022-08-07T03:46:02.805Z,36.00
2022-08-07T03:47:10.951Z,44.00
2022-08-07T03:48:02.260Z,52.00
2022-08-07T03:49:03.524Z,60.00
2022-08-07T03:50:02.427Z,68.00
2022-08-07T03:51:02.501Z,80.00
2022-08-07T03:52:02.569Z,88.00
2022-08-07T03:53:02.654Z,104.00
2022-08-07T03:54:33.108Z,120.00
2022-08-07T03:55:06.796Z,136.00
2022-08-07T03:56:03.933Z,152.00
2022-08-07T03:57:03.980Z,172.00
2022-08-07T03:58:33.428Z,192.00
2022-08-07T03:59:08.545Z,212.00
2022-08-07T04:00:04.076Z,236.00
2022-08-07T04:01:03.363Z,260.00
2022-08-07T04:02:03.370Z,284.00
2022-08-07T04:03:03.941Z,312.00
2022-08-07T04:04:04.991Z,340.00
2022-08-07T04:05:03.599Z,368.00
2022-08-07T04:06:03.638Z,400.00
2022-08-07T04:07:03.749Z,436.00
2022-08-07T04:08:03.811Z,468.00
2022-08-07T04:09:03.898Z,508.00
2022-08-07T04:10:03.969Z,544.00
2022-08-07T04:12:24.848Z,588.00
2022-08-07T04:12:32.547Z,636.00
2022-08-07T04:13:04.160Z,684.00
2022-08-07T04:14:14.041Z,732.00
2022-08-07T04:15:04.975Z,780.00
2022-08-07T04:16:04.415Z,832.00
2022-08-07T04:17:04.493Z,884.00
2022-08-07T04:18:56.670Z,936.00
2022-08-07T04:19:12.798Z,992.00
2022-08-07T04:20:04.695Z,1048.00
2022-08-07T04:21:04.789Z,1108.00
2022-08-07T04:22:13.253Z,1172.00
2022-08-07T04:23:06.227Z,1236.00
2022-08-07T04:24:07.743Z,1292.00
2022-08-07T04:25:08.784Z,1348.00
2022-08-07T04:26:05.177Z,1408.00
2022-08-07T04:27:05.263Z,1472.00
2022-08-07T04:28:05.345Z,1524.00
2022-08-07T04:29:05.425Z,1584.00
2022-08-07T04:30:13.433Z,1648.00
2022-08-07T04:31:05.586Z,1724.00
2022-08-07T04:32:09.978Z,1796.00
2022-08-07T04:33:07.298Z,1872.00
2022-08-07T04:34:05.856Z,1956.00
2022-08-07T04:35:06.322Z,2032.00
2022-08-07T04:36:06.437Z,2100.00
2022-08-07T04:37:08.057Z,2164.00
2022-08-07T04:38:07.087Z,2220.00
2022-08-07T04:39:06.260Z,2268.00
2022-08-07T04:40:06.318Z,2316.00
2022-08-07T04:41:06.392Z,2372.00
2022-08-07T04:42:06.471Z,2436.00
2022-08-07T04:43:06.562Z,2512.00
2022-08-07T04:44:12.602Z,2584.00
2022-08-07T04:45:08.160Z,2660.00
2022-08-07T04:46:06.781Z,2740.00
2022-08-07T04:47:08.644Z,2820.00
2022-08-07T04:48:10.482Z,2888.00
2022-08-07T04:49:14.862Z,2952.00
2022-08-07T04:50:07.132Z,3012.00
2022-08-07T04:51:09.094Z,3076.00
2022-08-07T04:52:07.275Z,3136.00
2022-08-07T04:53:07.356Z,3196.00
2022-08-07T04:54:07.808Z,3252.00
2022-08-07T04:55:15.333Z,3312.00
2022-08-07T04:58:42.290Z,3364.00
2022-08-07T04:59:18.226Z,3492.00
2022-08-07T05:00:18.967Z,3524.00
2022-08-07T05:00:35.341Z,3580.00
2022-08-07T05:01:30.437Z,3640.00
2022-08-07T05:02:23.691Z,3696.00
2022-08-07T05:04:00.957Z,3748.00
2022-08-07T05:04:23.842Z,3800.00
2022-08-07T05:05:53.082Z,3848.00
2022-08-07T05:06:24.013Z,3892.00
2022-08-07T05:07:27.593Z,3936.00
2022-08-07T05:08:59.696Z,3988.00
2022-08-07T05:09:43.189Z,4036.00
2022-08-07T05:10:24.369Z,4076.00
2022-08-07T05:11:26.273Z,4112.00
2022-08-07T05:12:27.430Z,4148.00
2022-08-07T05:14:55.033Z,4168.00
2022-08-07T05:15:04.794Z,4204.00
2022-08-07T05:15:24.765Z,4256.00
2022-08-07T05:16:24.841Z,4312.00
2022-08-07T05:17:52.931Z,4356.00
2022-08-07T05:18:25.018Z,4400.00
2022-08-07T05:19:32.693Z,4440.00
2022-08-07T05:20:25.699Z,4472.00
2022-08-07T05:21:59.357Z,4496.00
2022-08-07T05:22:26.771Z,4516.00
2022-08-07T05:23:29.159Z,4560.00
2022-08-07T05:24:30.421Z,4600.00
2022-08-07T05:25:37.376Z,4640.00
2022-08-07T05:26:25.655Z,4676.00
2022-08-07T05:28:03.550Z,4700.00
2022-08-07T05:28:26.889Z,4720.00
2022-08-07T05:29:25.849Z,4732.00
2022-08-07T05:30:32.748Z,4724.00
2022-08-07T05:31:35.171Z,4728.00
2022-08-07T05:32:26.105Z,4804.00
2022-08-07T05:33:26.178Z,4884.00
2022-08-07T05:34:27.722Z,4932.00
2022-08-07T05:35:33.600Z,4992.00
2022-08-07T05:36:30.290Z,5068.00
2022-08-07T05:37:26.626Z,5148.00
2022-08-07T05:39:01.206Z,5184.00
2022-08-07T05:40:14.431Z,5204.00
2022-08-07T05:40:26.789Z,5236.00
2022-08-07T05:41:26.831Z,5296.00
2022-08-07T05:42:34.539Z,5368.00
2022-08-07T05:43:50.191Z,5440.00
2022-08-07T05:44:29.706Z,5500.00
2022-08-07T05:45:46.166Z,5544.00
2022-08-07T05:46:27.137Z,5584.00
2022-08-07T05:47:38.646Z,5620.00
2022-08-07T05:48:27.301Z,5656.00
2022-08-07T05:49:27.371Z,5692.00
2022-08-07T05:50:27.470Z,5732.00
2022-08-07T05:51:31.741Z,5776.00
2022-08-07T05:52:32.267Z,5812.00
2022-08-07T05:54:12.677Z,5848.00
2022-08-07T05:54:44.642Z,5884.00
2022-08-07T05:56:03.235Z,5928.00
2022-08-07T05:56:30.263Z,5976.00
2022-08-07T05:57:30.363Z,6020.00
2022-08-07T05:58:35.976Z,6068.00
2022-08-07T05:59:28.150Z,6112.00
2022-08-07T06:00:28.198Z,6168.00
2022-08-07T06:01:35.761Z,6236.00
2022-08-07T06:02:28.845Z,6308.00
2022-08-07T06:03:53.582Z,6408.00
2022-08-07T06:04:30.285Z,6556.00
2022-08-07T06:05:28.756Z,8496.00
2022-08-07T06:06:32.300Z,39552.00
2022-08-07T06:08:14.648Z,73344.00
2022-08-07T06:08:36.061Z,83136.00
2022-08-07T06:10:04.563Z,88192.00
2022-08-07T06:10:28.969Z,90592.00
2022-08-07T06:11:29.022Z,88736.00
2022-08-07T06:12:33.201Z,90048.00
2022-08-07T06:14:10.538Z,92384.00
2022-08-07T06:14:30.396Z,94176.00
2022-08-07T06:15:39.043Z,96992.00
2022-08-07T06:16:29.409Z,97344.00
2022-08-07T06:17:32.098Z,92288.00
2022-08-07T06:18:29.479Z,95552.00
2022-08-07T06:19:57.880Z,94048.00
2022-08-07T06:20:31.842Z,92960.00
2022-08-07T06:22:16.022Z,92480.00
2022-08-07T06:22:29.834Z,88960.00
2022-08-07T06:24:38.695Z,88320.00
2022-08-07T06:25:02.869Z,85472.00
2022-08-07T06:25:34.909Z,95296.00
2022-08-07T06:26:30.130Z,87232.00
2022-08-07T06:28:00.545Z,88704.00
2022-08-07T06:28:30.269Z,81344.00
2022-08-07T06:29:30.344Z,81952.00
2022-08-07T06:30:36.021Z,80704.00
2022-08-07T06:31:46.844Z,85376.00
2022-08-07T06:32:32.681Z,85600.00
2022-08-07T06:33:33.111Z,87680.00
2022-08-07T06:34:30.749Z,83520.00
2022-08-07T06:35:45.933Z,84704.00
2022-08-07T06:36:35.199Z,81184.00
2022-08-07T06:37:44.311Z,80480.00
2022-08-07T06:38:31.043Z,79424.00
2022-08-07T06:40:16.703Z,79680.00
2022-08-07T06:40:35.001Z,77568.00
2022-08-07T06:42:01.116Z,77984.00
2022-08-07T06:42:35.134Z,78592.00
2022-08-07T06:43:39.259Z,79040.00
2022-08-07T06:44:36.604Z,83872.00
2022-08-07T06:45:31.610Z,92128.00
2022-08-07T06:46:35.215Z,96480.00
2022-08-07T06:47:47.893Z,100608.00
2022-08-07T06:48:31.829Z,98080.00
2022-08-07T06:49:31.919Z,93824.00
2022-08-07T06:50:32.008Z,97408.00
2022-08-07T06:51:33.424Z,94368.00
2022-08-07T06:52:35.746Z,91616.00
2022-08-07T06:55:29.757Z,88608.00
2022-08-07T06:56:01.098Z,84096.00
2022-08-07T06:56:07.469Z,87072.00
2022-08-07T06:57:01.929Z,87936.00
2022-08-07T06:58:01.970Z,87808.00
2022-08-07T07:00:14.595Z,86784.00
2022-08-07T07:00:22.517Z,87616.00
2022-08-07T07:01:02.962Z,87136.00
2022-08-07T07:02:02.362Z,89280.00
2022-08-07T07:03:08.783Z,90080.00
2022-08-07T07:04:27.629Z,90656.00
2022-08-07T07:05:02.550Z,93888.00
2022-08-07T07:06:06.258Z,95136.00
2022-08-07T07:07:18.801Z,103264.00
2022-08-07T07:08:06.990Z,99264.00
2022-08-07T07:09:02.825Z,92608.00
2022-08-07T07:10:02.874Z,91008.00
2022-08-07T07:11:13.070Z,87648.00
2022-08-07T07:12:07.646Z,82720.00
2022-08-07T07:13:03.113Z,82336.00
2022-08-07T07:14:03.164Z,81504.00
2022-08-07T07:15:03.654Z,82016.00
2022-08-07T07:16:03.322Z,82624.00
2022-08-07T07:17:03.449Z,82976.00
2022-08-07T07:18:03.501Z,83072.00
2022-08-07T07:19:11.253Z,82016.00
2022-08-07T07:20:03.652Z,77280.00
2022-08-07T07:21:03.975Z,77056.00
2022-08-07T07:22:12.214Z,80096.00
2022-08-07T07:24:09.834Z,79104.00
2022-08-07T07:24:16.587Z,80832.00
2022-08-07T07:26:32.287Z,82528.00
2022-08-07T07:26:38.205Z,89504.00
2022-08-07T07:27:04.233Z,93472.00
2022-08-07T07:28:07.583Z,93792.00
2022-08-07T07:29:38.479Z,92352.00
2022-08-07T07:30:10.110Z,88288.00
2022-08-07T07:31:04.480Z,83744.00
2022-08-07T07:32:04.563Z,79456.00
2022-08-07T07:33:04.632Z,77472.00
2022-08-07T07:34:04.714Z,81760.00
2022-08-07T07:35:04.797Z,80928.00
2022-08-07T07:36:13.368Z,80768.00
2022-08-07T07:37:14.531Z,84512.00
2022-08-07T07:38:05.968Z,88224.00
2022-08-07T07:39:05.234Z,90400.00
2022-08-07T07:40:14.513Z,86400.00
2022-08-07T07:41:05.356Z,87040.00
2022-08-07T07:42:13.639Z,88896.00
2022-08-07T07:43:11.693Z,84160.00
2022-08-07T07:44:17.806Z,89312.00
2022-08-07T07:45:05.694Z,89408.00
2022-08-07T07:46:39.830Z,95232.00
2022-08-07T07:47:14.259Z,92800.00
2022-08-07T07:48:05.909Z,90464.00
2022-08-07T07:50:31.564Z,95328.00
2022-08-07T07:50:41.487Z,95296.00
2022-08-07T07:51:07.580Z,89280.00
2022-08-07T07:52:06.394Z,89600.00
2022-08-07T07:53:06.337Z,91968.00
2022-08-07T07:54:06.406Z,92672.00
2022-08-07T07:55:06.496Z,93792.00
2022-08-07T07:56:06.580Z,97984.00
2022-08-07T07:57:06.675Z,100448.00
2022-08-07T07:58:06.741Z,98880.00
2022-08-07T07:59:06.819Z,99360.00
2022-08-07T08:00:06.873Z,101728.00
2022-08-07T08:02:00.841Z,101184.00
2022-08-07T08:02:10.476Z,99232.00
2022-08-07T08:03:07.300Z,97216.00
2022-08-07T08:04:11.586Z,97792.00
2022-08-07T08:05:14.318Z,98976.00
2022-08-07T08:06:07.354Z,99328.00
2022-08-07T08:07:07.762Z,95168.00
2022-08-07T08:08:07.539Z,94912.00
2022-08-07T08:09:08.134Z,92512.00
2022-08-07T08:10:07.680Z,93248.00
2022-08-07T08:11:08.174Z,89760.00
2022-08-07T08:12:07.832Z,85088.00
2022-08-07T08:13:10.579Z,82752.00
2022-08-07T08:14:08.009Z,81440.00
2022-08-07T08:15:08.087Z,80736.00
2022-08-07T08:16:08.143Z,80608.00
2022-08-07T08:17:55.781Z,82112.00
2022-08-07T08:18:17.936Z,81984.00
2022-08-07T08:19:17.403Z,81120.00
2022-08-07T08:20:19.244Z,87520.00
2022-08-07T08:21:08.537Z,87872.00
2022-08-07T08:22:09.752Z,88608.00
2022-08-07T08:23:09.282Z,87520.00
2022-08-07T08:24:08.762Z,87104.00
2022-08-07T08:25:24.808Z,86752.00
2022-08-07T08:26:08.937Z,85312.00
2022-08-07T08:27:09.250Z,88896.00
2022-08-07T08:28:09.078Z,92192.00
2022-08-07T08:29:09.145Z,91264.00
2022-08-07T08:30:09.232Z,88352.00
2022-08-07T08:31:16.018Z,85760.00
2022-08-07T08:32:18.543Z,85952.00
2022-08-07T08:33:15.277Z,87488.00
2022-08-07T08:34:09.579Z,84896.00
2022-08-07T08:35:09.658Z,83232.00
2022-08-07T08:36:09.727Z,86560.00
2022-08-07T08:37:59.452Z,89216.00
2022-08-07T08:38:10.046Z,87648.00
2022-08-07T08:39:10.043Z,86688.00
2022-08-07T08:40:10.057Z,87072.00
2022-08-07T08:41:10.154Z,86688.00
2022-08-07T08:42:10.227Z,82304.00
2022-08-07T08:43:10.332Z,78048.00
2022-08-07T08:44:10.404Z,76768.00
2022-08-07T08:45:13.290Z,76288.00
2022-08-07T08:46:10.485Z,75264.00
2022-08-07T08:47:11.301Z,75392.00
2022-08-07T08:48:10.868Z,75200.00
2022-08-07T08:49:10.726Z,80096.00
2022-08-07T08:50:12.482Z,80416.00
2022-08-07T08:51:14.286Z,79648.00
2022-08-07T08:52:14.480Z,79872.00
2022-08-07T08:53:11.114Z,80128.00
2022-08-07T08:54:11.149Z,79072.00
2022-08-07T08:55:20.779Z,77536.00
2022-08-07T08:56:11.300Z,77408.00
2022-08-07T08:57:11.371Z,74048.00
2022-08-07T08:58:13.033Z,70336.00
2022-08-07T08:59:13.627Z,68960.00
2022-08-07T09:00:11.617Z,70144.00
2022-08-07T09:01:15.313Z,70752.00
2022-08-07T09:02:11.827Z,72544.00
2022-08-07T09:03:11.891Z,72288.00
2022-08-07T09:04:13.421Z,70272.00
2022-08-07T09:05:12.023Z,71936.00
2022-08-07T09:06:12.086Z,71360.00
2022-08-07T09:07:12.169Z,71232.00
2022-08-07T09:08:12.241Z,73376.00
2022-08-07T09:09:20.598Z,75232.00
2022-08-07T09:10:12.375Z,76288.00
2022-08-07T09:11:13.971Z,72640.00
2022-08-07T09:12:19.948Z,71328.00
2022-08-07T09:13:14.723Z,72640.00
2022-08-07T09:14:12.673Z,74176.00
2022-08-07T09:16:22.813Z,76448.00
2022-08-07T09:16:31.379Z,75328.00
2022-08-07T09:17:12.919Z,73568.00
2022-08-07T09:18:15.815Z,74752.00
2022-08-07T09:19:52.764Z,77568.00
2022-08-07T09:20:34.663Z,78208.00
2022-08-07T09:21:13.838Z,76288.00
2022-08-07T09:24:28.740Z,74560.00
2022-08-07T09:24:59.584Z,74336.00
2022-08-07T09:25:11.841Z,76896.00
2022-08-07T09:25:55.884Z,73280.00
2022-08-07T09:26:57.089Z,69536.00
2022-08-07T09:28:01.195Z,66592.00
2022-08-07T09:30:04.954Z,68128.00
2022-08-07T09:30:12.319Z,70784.00
2022-08-07T09:30:56.251Z,76608.00
2022-08-07T09:31:56.348Z,77824.00
2022-08-07T09:32:56.402Z,74432.00
2022-08-07T09:33:57.871Z,72224.00
2022-08-07T09:34:56.539Z,70976.00
2022-08-07T09:36:05.188Z,68928.00
2022-08-07T09:36:56.711Z,70240.00
2022-08-07T09:37:56.789Z,69568.00
2022-08-07T09:38:56.863Z,69216.00
2022-08-07T09:39:58.023Z,66944.00
2022-08-07T09:40:57.032Z,65568.00
2022-08-07T09:42:03.199Z,69504.00
2022-08-07T09:42:57.154Z,71136.00
2022-08-07T09:44:06.424Z,73216.00
2022-08-07T09:47:24.644Z,73888.00
2022-08-07T09:47:59.565Z,76000.00
2022-08-07T09:48:11.908Z,72448.00
2022-08-07T09:50:02.859Z,72864.00
2022-08-07T09:50:23.844Z,71840.00
2022-08-07T09:50:52.280Z,69696.00
2022-08-07T09:52:09.786Z,67776.00
2022-08-07T09:52:52.461Z,66464.00
2022-08-07T09:53:57.064Z,64928.00
2022-08-07T09:54:52.193Z,65120.00
2022-08-07T09:56:03.069Z,64768.00
2022-08-07T09:56:52.445Z,62816.00
2022-08-07T09:57:53.991Z,64736.00
2022-08-07T09:58:52.515Z,67264.00
2022-08-07T10:00:01.407Z,66752.00
2022-08-07T10:00:52.718Z,66304.00
2022-08-07T10:01:54.537Z,63776.00
2022-08-07T10:02:55.380Z,63072.00
2022-08-07T10:04:05.050Z,62848.00
2022-08-07T10:04:54.954Z,62080.00
2022-08-07T10:05:59.165Z,59136.00
2022-08-07T10:06:55.612Z,57824.00
2022-08-07T10:07:55.352Z,57024.00
2022-08-07T10:08:53.416Z,55360.00
2022-08-07T10:10:01.117Z,56832.00
2022-08-07T10:11:59.657Z,57760.00
2022-08-07T10:12:15.387Z,57504.00
2022-08-07T10:12:53.943Z,56224.00
2022-08-07T10:14:00.751Z,54752.00
2022-08-07T10:14:55.019Z,53408.00
2022-08-07T10:15:53.940Z,53632.00
2022-08-07T10:16:54.054Z,52096.00
2022-08-07T10:18:03.067Z,51168.00
2022-08-07T10:18:54.192Z,52096.00
2022-08-07T10:19:54.232Z,49440.00
2022-08-07T10:20:54.314Z,47328.00
2022-08-07T10:22:14.780Z,46752.00
2022-08-07T10:22:54.509Z,45376.00
2022-08-07T10:24:06.480Z,43008.00
2022-08-07T10:24:54.668Z,42144.00
2022-08-07T10:25:54.711Z,42144.00
2022-08-07T10:26:54.789Z,40512.00
2022-08-07T10:27:55.994Z,39488.00
2022-08-07T10:28:54.967Z,39168.00
2022-08-07T10:29:55.012Z,39616.00
2022-08-07T10:30:55.084Z,39104.00
2022-08-07T10:31:55.158Z,37536.00
2022-08-07T10:32:59.634Z,36032.00
2022-08-07T10:34:14.068Z,35040.00
2022-08-07T10:34:55.421Z,35136.00
2022-08-07T10:36:10.825Z,34976.00
2022-08-07T10:36:55.580Z,34752.00
2022-08-07T10:38:09.851Z,34560.00
2022-08-07T10:38:55.759Z,33792.00
2022-08-07T10:39:57.470Z,33824.00
2022-08-07T10:40:55.926Z,31968.00
2022-08-07T10:42:00.259Z,31136.00
2022-08-07T10:42:56.079Z,30880.00
2022-08-07T10:44:02.290Z,30240.00
2022-08-07T10:44:56.239Z,30048.00
2022-08-07T10:45:58.160Z,29792.00
2022-08-07T10:46:56.373Z,29728.00
2022-08-07T10:48:02.789Z,28256.00
2022-08-07T10:48:56.552Z,26464.00
2022-08-07T10:49:56.585Z,25408.00
2022-08-07T10:50:56.662Z,25312.00
2022-08-07T10:52:01.728Z,24928.00
2022-08-07T10:52:56.851Z,24576.00
2022-08-07T10:54:00.103Z,24384.00
2022-08-07T10:55:07.923Z,24032.00
2022-08-07T10:55:57.087Z,23712.00
2022-08-07T10:56:57.162Z,23584.00
2022-08-07T10:57:57.234Z,22528.00
2022-08-07T10:58:59.382Z,21760.00
2022-08-07T10:59:57.365Z,21312.00
2022-08-07T11:00:57.515Z,20864.00
2022-08-07T11:02:04.765Z,19680.00
2022-08-07T11:02:57.699Z,15296.00
2022-08-07T11:04:11.257Z,10852.00
2022-08-07T11:04:57.832Z,8888.00
2022-08-07T11:05:57.867Z,8044.00
2022-08-07T11:06:57.947Z,7688.00
2022-08-07T11:08:01.344Z,7508.00
2022-08-07T11:08:58.138Z,7400.00
2022-08-07T11:10:07.107Z,7324.00
2022-08-07T11:10:59.990Z,7264.00
2022-08-07T11:11:59.188Z,7228.00
2022-08-07T11:13:01.602Z,7208.00
2022-08-07T11:14:46.452Z,7192.00
2022-08-07T11:15:09.607Z,7188.00
2022-08-07T11:15:58.646Z,7180.00
2022-08-07T11:17:01.988Z,7168.00
2022-08-07T11:18:03.672Z,7152.00
2022-08-07T11:18:58.888Z,7140.00
2022-08-07T11:19:58.968Z,7128.00
2022-08-07T11:20:59.015Z,7100.00
2022-08-07T11:22:00.209Z,7084.00
2022-08-07T11:22:59.162Z,7064.00
2022-08-07T11:23:59.256Z,7040.00
2022-08-07T11:24:59.303Z,7016.00
2022-08-07T11:26:06.428Z,6996.00
2022-08-07T11:27:00.450Z,6972.00
2022-08-07T11:28:01.230Z,6964.00
2022-08-07T11:28:59.658Z,6936.00
2022-08-07T11:30:17.917Z,6920.00
2022-08-07T11:30:59.807Z,6896.00
2022-08-07T11:31:59.886Z,6868.00
2022-08-07T11:32:59.950Z,6836.00
2022-08-07T11:34:00.832Z,6840.00
2022-08-07T11:35:00.102Z,6820.00
2022-08-07T11:36:01.353Z,6804.00
2022-08-07T11:37:00.645Z,6776.00
2022-08-07T11:38:10.401Z,6764.00
2022-08-07T11:39:00.503Z,6740.00
2022-08-07T11:40:03.514Z,6712.00
2022-08-07T11:41:00.545Z,6688.00
2022-08-07T11:42:03.028Z,6656.00
2022-08-07T11:43:00.674Z,6616.00
2022-08-07T11:44:11.876Z,6588.00
2022-08-07T11:45:00.819Z,6552.00
2022-08-07T11:46:00.890Z,6528.00
2022-08-07T11:47:00.969Z,6496.00
2022-08-07T11:48:03.406Z,6468.00
2022-08-07T11:49:50.216Z,6432.00
2022-08-07T11:50:32.274Z,6392.00
2022-08-07T11:51:01.323Z,6368.00
2022-08-07T11:52:01.404Z,6340.00
2022-08-07T11:53:01.465Z,6304.00
2022-08-07T11:54:03.134Z,6272.00
2022-08-07T11:55:01.610Z,6240.00
2022-08-07T11:56:24.770Z,6208.00
2022-08-07T11:57:01.762Z,6176.00
2022-08-07T11:58:02.103Z,6148.00
2022-08-07T11:59:01.946Z,6124.00
2022-08-07T12:00:11.218Z,6096.00
2022-08-07T12:01:05.161Z,6068.00
2022-08-07T12:02:02.212Z,6044.00
2022-08-07T12:03:02.274Z,6012.00
2022-08-07T12:04:02.350Z,5988.00
2022-08-07T12:05:02.399Z,5968.00
2022-08-07T12:06:02.476Z,5948.00
2022-08-07T12:07:09.129Z,5928.00
2022-08-07T12:08:04.025Z,5916.00
2022-08-07T12:09:02.742Z,5896.00
2022-08-07T12:10:05.591Z,5868.00
2022-08-07T12:11:20.675Z,5848.00
2022-08-07T12:12:10.825Z,5820.00
2022-08-07T12:13:03.053Z,5808.00
2022-08-07T12:14:03.168Z,5784.00
2022-08-07T12:15:03.196Z,5768.00
2022-08-07T12:16:06.930Z,5752.00
2022-08-07T12:17:04.341Z,5732.00
2022-08-07T12:18:03.432Z,5712.00
2022-08-07T12:19:03.516Z,5704.00
2022-08-07T12:20:09.459Z,5684.00
2022-08-07T12:21:03.663Z,5664.00
2022-08-07T12:22:38.504Z,5636.00
2022-08-07T12:23:09.039Z,5624.00